createdAt,value
2018-07-13T00:08:35.351Z,6.20
2018-07-13T01:05:39.590Z,6.00
2018-07-13T01:06:12.816Z,6.40
2018-07-13T02:31:52.456Z,6.25
2018-07-13T03:39:25.638Z,9.40
2018-07-13T03:39:58.842Z,9.28
2018-07-13T03:40:31.973Z,10.38
2018-07-13T03:41:05.164Z,9.33
2018-07-13T03:41:38.299Z,9.55
2018-07-13T03:42:11.520Z,9.68
2018-07-13T03:42:44.763Z,9.98
2018-07-13T03:43:18.046Z,8.48
2018-07-13T03:43:54.029Z,10.23
2018-07-13T03:44:27.235Z,9.20
2018-07-13T03:45:00.407Z,9.78
2018-07-13T03:45:33.659Z,9.65
2018-07-13T03:46:07.222Z,10.43
2018-07-13T03:46:40.432Z,9.40
2018-07-13T03:47:13.655Z,10.23
2018-07-13T03:47:46.877Z,9.80
2018-07-13T03:48:20.069Z,10.10
2018-07-13T03:48:53.238Z,10.18
2018-07-13T03:49:26.424Z,9.15
2018-07-13T03:49:59.660Z,10.43
2018-07-13T03:50:32.787Z,9.78
2018-07-13T03:51:06.162Z,9.75
2018-07-13T03:51:39.331Z,9.65
2018-07-13T03:52:12.520Z,9.75
2018-07-13T03:52:45.720Z,9.75
2018-07-13T03:53:19.815Z,10.18
2018-07-13T03:53:52.963Z,10.08
2018-07-13T03:54:26.189Z,9.70
2018-07-13T03:54:59.353Z,10.88
2018-07-13T03:55:32.555Z,10.18
2018-07-13T03:56:05.738Z,10.65
2018-07-13T03:56:38.995Z,9.95
2018-07-13T03:57:12.127Z,10.28
2018-07-13T03:57:45.348Z,10.45
2018-07-13T03:58:18.543Z,9.80
2018-07-13T03:58:51.716Z,9.45
2018-07-13T03:59:25.222Z,9.83
2018-07-13T04:09:38.543Z,9.48
2018-07-13T04:23:06.795Z,9.70
2018-07-13T04:23:40.027Z,10.45
2018-07-13T04:24:13.191Z,11.30
2018-07-13T04:24:47.149Z,11.00
2018-07-13T04:25:20.584Z,10.65
2018-07-13T04:25:53.911Z,10.13
2018-07-13T04:26:27.095Z,11.75
2018-07-13T04:27:00.891Z,10.50
2018-07-13T04:27:34.684Z,10.45
2018-07-13T04:28:07.851Z,10.20
2018-07-13T04:28:41.149Z,12.10
2018-07-13T04:29:14.363Z,10.88
2018-07-13T04:29:47.542Z,10.85
2018-07-13T04:30:21.125Z,10.93
2018-07-13T04:30:54.279Z,10.98
2018-07-13T04:31:27.487Z,12.28
2018-07-13T04:32:00.645Z,12.33
2018-07-13T04:32:33.892Z,11.28
2018-07-13T04:33:07.060Z,11.10
2018-07-13T04:33:40.338Z,11.83
2018-07-13T04:34:14.468Z,10.05
2018-07-13T04:34:47.590Z,11.57
2018-07-13T04:35:20.960Z,10.05
2018-07-13T04:35:54.121Z,11.03
2018-07-13T04:36:27.370Z,11.57
2018-07-13T04:37:00.796Z,12.25
2018-07-13T04:37:33.955Z,11.78
2018-07-13T04:38:07.387Z,11.05
2018-07-13T04:38:42.890Z,12.37
2018-07-13T04:39:18.171Z,13.25
2018-07-13T04:40:04.149Z,11.28
2018-07-13T04:40:38.983Z,12.43
2018-07-13T04:41:28.786Z,11.28
2018-07-13T04:42:10.413Z,10.80
2018-07-13T04:42:44.729Z,10.80
2018-07-13T04:43:21.959Z,9.73
2018-07-13T04:43:55.222Z,10.78
2018-07-13T04:44:28.400Z,11.25
2018-07-13T04:45:01.606Z,10.43
2018-07-13T04:45:34.876Z,10.00
2018-07-13T04:46:08.791Z,11.15
2018-07-13T04:46:42.302Z,11.55
2018-07-13T04:47:16.631Z,11.60
2018-07-13T04:47:49.899Z,11.28
2018-07-13T04:48:23.163Z,12.03
2018-07-13T04:49:04.353Z,10.63
2018-07-13T04:49:41.442Z,11.55
2018-07-13T04:50:15.960Z,11.25
2018-07-13T04:51:00.263Z,11.28
2018-07-13T04:51:50.207Z,10.78
2018-07-13T04:52:33.988Z,11.50
2018-07-13T04:53:08.704Z,11.30
2018-07-13T04:53:41.911Z,11.20
2018-07-13T04:54:15.087Z,11.80
2018-07-13T04:55:03.258Z,11.50
2018-07-13T04:55:44.215Z,10.78
2018-07-13T05:00:52.495Z,11.93
2018-07-13T05:05:11.558Z,12.58
2018-07-13T05:18:04.977Z,12.47
2018-07-13T05:18:40.123Z,12.70
2018-07-13T05:19:13.391Z,12.45
2018-07-13T05:19:47.636Z,13.18
2018-07-13T05:20:20.843Z,12.60
2018-07-13T05:21:04.830Z,13.20
2018-07-13T05:21:39.039Z,14.40
2018-07-13T05:22:18.595Z,13.70
2018-07-13T05:23:44.075Z,12.40
2018-07-13T05:35:31.143Z,13.70
2018-07-13T05:46:09.237Z,14.20
2018-07-13T05:46:42.944Z,14.80
2018-07-13T05:47:17.125Z,15.25
2018-07-13T05:47:51.244Z,15.10
2018-07-13T05:48:24.839Z,15.63
2018-07-13T05:48:59.489Z,14.70
2018-07-13T05:49:32.820Z,13.05
2018-07-13T05:50:06.037Z,14.33
2018-07-13T05:50:39.435Z,14.50
2018-07-13T05:51:12.664Z,14.95
2018-07-13T05:51:45.821Z,15.00
2018-07-13T05:52:19.211Z,14.93
2018-07-13T05:53:03.060Z,15.30
2018-07-13T05:53:36.314Z,15.13
2018-07-13T05:54:09.628Z,14.07
2018-07-13T05:54:42.950Z,13.00
2018-07-13T05:55:16.329Z,14.23
2018-07-13T05:55:49.539Z,12.65
2018-07-13T05:56:22.731Z,13.55
2018-07-13T05:56:55.879Z,14.35
2018-07-13T05:57:32.102Z,14.25
2018-07-13T05:58:05.298Z,12.05
2018-07-13T05:58:38.707Z,13.00
2018-07-13T05:59:11.880Z,13.90
2018-07-13T05:59:45.431Z,12.75
2018-07-13T06:00:18.690Z,13.72
2018-07-13T06:00:56.005Z,12.82
2018-07-13T06:01:32.114Z,12.13
2018-07-13T06:02:05.462Z,11.10
2018-07-13T06:02:38.630Z,13.05
2018-07-13T06:03:14.471Z,12.55
2018-07-13T06:03:47.799Z,13.98
2018-07-13T06:04:20.947Z,12.25
2018-07-13T06:04:54.359Z,11.20
2018-07-13T06:05:27.603Z,11.33
2018-07-13T06:06:01.117Z,11.50
2018-07-13T06:06:34.711Z,12.35
2018-07-13T06:07:08.126Z,11.40
2018-07-13T06:07:41.600Z,14.23
2018-07-13T06:08:14.828Z,11.03
2018-07-13T06:08:48.182Z,13.08
2018-07-13T06:09:21.613Z,12.40
2018-07-13T06:09:54.919Z,13.62
2018-07-13T06:10:28.365Z,11.28
2018-07-13T06:11:01.627Z,11.57
2018-07-13T06:11:35.074Z,13.13
2018-07-13T06:12:08.716Z,12.45
2018-07-13T06:12:42.321Z,11.80
2018-07-13T06:13:15.810Z,12.40
2018-07-13T06:13:49.049Z,13.93
2018-07-13T06:14:27.053Z,14.10
2018-07-13T06:15:00.247Z,12.80
2018-07-13T06:15:33.550Z,13.93
2018-07-13T06:16:06.959Z,14.03
2018-07-13T06:16:40.108Z,14.23
2018-07-13T06:17:13.552Z,14.03
2018-07-13T06:17:46.722Z,13.75
2018-07-13T06:18:20.156Z,13.53
2018-07-13T06:18:53.410Z,14.33
2018-07-13T06:19:26.575Z,12.33
2018-07-13T06:19:59.823Z,14.20
2018-07-13T06:20:33.113Z,13.08
2018-07-13T06:21:06.297Z,13.93
2018-07-13T06:21:39.940Z,13.00
2018-07-13T06:22:13.353Z,12.65
2018-07-13T06:22:46.552Z,13.45
2018-07-13T06:23:19.740Z,12.45
2018-07-13T06:23:52.907Z,14.13
2018-07-13T06:24:26.055Z,14.35
2018-07-13T06:25:01.302Z,14.78
2018-07-13T06:25:35.385Z,15.70
2018-07-13T06:26:08.562Z,13.93
2018-07-13T06:26:41.977Z,15.43
2018-07-13T06:27:15.130Z,14.05
2018-07-13T06:27:48.508Z,14.33
2018-07-13T06:28:21.689Z,14.70
2018-07-13T06:28:54.829Z,14.10
2018-07-13T06:29:28.113Z,12.82
2018-07-13T06:30:01.345Z,13.65
2018-07-13T06:30:34.695Z,13.58
2018-07-13T06:31:08.227Z,15.43
2018-07-13T06:31:41.491Z,13.85
2018-07-13T06:32:14.919Z,14.23
2018-07-13T06:32:48.086Z,13.78
2018-07-13T06:33:21.265Z,14.30
2018-07-13T06:33:54.534Z,13.62
2018-07-13T06:34:27.721Z,15.48
2018-07-13T06:35:01.398Z,13.53
2018-07-13T06:35:34.664Z,13.78
2018-07-13T06:36:07.837Z,13.75
2018-07-13T06:36:41.002Z,13.18
2018-07-13T06:37:14.177Z,13.70
2018-07-13T06:37:47.431Z,13.40
2018-07-13T06:38:20.587Z,14.15
2018-07-13T06:38:53.985Z,13.90
2018-07-13T06:39:27.144Z,14.23
2018-07-13T06:40:00.493Z,13.00
2018-07-13T06:40:33.790Z,13.50
2018-07-13T06:41:06.990Z,14.60
2018-07-13T06:41:40.279Z,15.48
2018-07-13T06:42:13.834Z,13.22
2018-07-13T06:42:47.137Z,12.33
2018-07-13T06:43:20.494Z,12.80
2018-07-13T06:43:53.675Z,12.95
2018-07-13T06:44:26.876Z,13.75
2018-07-13T06:45:00.136Z,13.10
2018-07-13T06:45:35.685Z,13.70
2018-07-13T06:46:08.875Z,14.03
2018-07-13T06:46:42.568Z,13.98
2018-07-13T06:47:16.014Z,13.58
2018-07-13T06:47:49.485Z,13.10
2018-07-13T06:48:22.677Z,11.80
2018-07-13T06:48:55.932Z,13.55
2018-07-13T06:49:29.342Z,12.68
2018-07-13T06:50:02.736Z,13.28
2018-07-13T06:50:36.238Z,13.35
2018-07-13T06:51:09.425Z,13.20
2018-07-13T06:51:42.678Z,13.58
2018-07-13T06:52:16.079Z,14.10
2018-07-13T06:52:49.231Z,14.73
2018-07-13T06:53:22.380Z,16.52
2018-07-13T06:53:55.607Z,13.78
2018-07-13T06:54:28.790Z,13.40
2018-07-13T06:55:01.979Z,13.55
2018-07-13T06:55:35.190Z,12.43
2018-07-13T06:56:08.410Z,13.35
2018-07-13T06:56:41.972Z,13.98
2018-07-13T06:57:22.506Z,13.20
2018-07-13T06:58:01.207Z,13.98
2018-07-13T06:58:40.108Z,12.15
2018-07-13T06:59:15.166Z,12.95
2018-07-13T06:59:48.330Z,13.35
2018-07-13T07:01:02.886Z,12.03
2018-07-13T07:01:36.023Z,13.80
2018-07-13T07:02:13.596Z,12.37
2018-07-13T07:02:46.823Z,13.03
2018-07-13T07:03:19.970Z,12.43
2018-07-13T07:04:40.863Z,13.60
2018-07-13T07:06:21.607Z,12.60
2018-07-13T07:06:55.173Z,12.95
2018-07-13T07:07:28.445Z,12.58
2018-07-13T07:08:01.593Z,13.13
2018-07-13T07:08:34.995Z,12.85
2018-07-13T07:09:08.147Z,13.62
2018-07-13T07:09:42.886Z,12.55
2018-07-13T07:10:16.011Z,12.00
2018-07-13T07:10:49.286Z,13.35
2018-07-13T07:11:22.556Z,12.23
2018-07-13T07:12:00.146Z,12.98
2018-07-13T07:12:40.324Z,12.98
2018-07-13T07:13:18.109Z,12.20
2018-07-13T07:13:51.449Z,12.18
2018-07-13T07:14:25.381Z,13.43
2018-07-13T07:14:58.530Z,13.13
2018-07-13T07:15:31.678Z,12.80
2018-07-13T07:16:05.184Z,13.00
2018-07-13T07:16:38.327Z,12.82
2018-07-13T07:17:11.644Z,13.25
2018-07-13T07:17:44.891Z,12.10
2018-07-13T07:18:18.047Z,12.03
2018-07-13T07:18:51.486Z,12.13
2018-07-13T07:19:24.707Z,12.37
2018-07-13T07:19:57.907Z,13.22
2018-07-13T07:20:31.087Z,12.85
2018-07-13T07:21:04.496Z,12.15
2018-07-13T07:21:37.738Z,11.95
2018-07-13T07:22:11.115Z,12.35
2018-07-13T07:22:44.586Z,12.40
2018-07-13T07:23:17.771Z,12.07
2018-07-13T07:23:50.967Z,11.97
2018-07-13T07:24:24.340Z,12.35
2018-07-13T07:24:57.597Z,12.93
2018-07-13T07:25:30.790Z,12.70
2018-07-13T07:26:04.597Z,11.88
2018-07-13T07:26:37.861Z,12.23
2018-07-13T07:27:11.070Z,12.15
2018-07-13T07:27:44.789Z,11.20
2018-07-13T07:28:18.181Z,11.55
2018-07-13T07:28:51.379Z,13.40
2018-07-13T07:29:24.520Z,12.65
2018-07-13T07:29:57.744Z,12.58
2018-07-13T07:30:31.050Z,12.53
2018-07-13T07:31:06.153Z,12.30
2018-07-13T07:31:42.896Z,12.93
2018-07-13T07:32:16.585Z,14.05
2018-07-13T07:32:53.247Z,11.57
2018-07-13T07:33:26.490Z,11.22
2018-07-13T07:33:59.786Z,11.90
2018-07-13T07:34:32.967Z,12.07
2018-07-13T07:35:06.525Z,12.15
2018-07-13T07:35:40.614Z,11.95
2018-07-13T07:36:15.976Z,13.35
2018-07-13T07:36:49.448Z,11.63
2018-07-13T07:37:23.012Z,11.55
2018-07-13T07:37:58.061Z,11.25
2018-07-13T07:38:31.347Z,11.48
2018-07-13T07:39:05.887Z,12.20
2018-07-13T07:39:39.045Z,12.45
2018-07-13T07:40:12.187Z,12.20
2018-07-13T07:40:45.826Z,12.30
2018-07-13T07:41:19.002Z,12.30
2018-07-13T07:41:52.697Z,11.88
2018-07-13T07:42:25.894Z,12.43
2018-07-13T07:42:59.031Z,13.60
2018-07-13T07:43:32.361Z,13.90
2018-07-13T07:44:05.719Z,13.03
2018-07-13T07:44:39.138Z,12.82
2018-07-13T07:45:12.343Z,12.98
2018-07-13T07:45:45.522Z,12.58
2018-07-13T07:46:18.770Z,12.98
2018-07-13T07:46:51.981Z,11.80
2018-07-13T07:47:25.129Z,12.15
2018-07-13T07:47:58.295Z,13.18
2018-07-13T07:48:31.480Z,12.82
2018-07-13T07:49:04.839Z,12.47
2018-07-13T07:49:38.024Z,12.23
2018-07-13T07:50:11.239Z,12.47
2018-07-13T07:50:44.487Z,13.05
2018-07-13T07:51:17.757Z,12.07
2018-07-13T07:51:50.959Z,13.58
2018-07-13T07:52:24.133Z,11.83
2018-07-13T07:52:57.328Z,13.00
2018-07-13T07:53:30.627Z,14.25
2018-07-13T07:54:03.775Z,13.43
2018-07-13T07:54:36.922Z,13.95
2018-07-13T07:55:10.131Z,13.58
2018-07-13T07:55:43.360Z,13.30
2018-07-13T07:56:16.545Z,12.43
2018-07-13T07:56:49.710Z,12.47
2018-07-13T07:57:23.093Z,11.50
2018-07-13T07:57:56.330Z,11.68
2018-07-13T07:58:29.489Z,12.35
2018-07-13T07:59:02.768Z,12.25
2018-07-13T07:59:36.003Z,12.20
2018-07-13T08:00:09.346Z,11.48
2018-07-13T08:00:42.537Z,12.55
2018-07-13T08:01:15.673Z,11.78
2018-07-13T08:01:48.930Z,13.25
2018-07-13T08:02:22.054Z,13.10
2018-07-13T08:02:55.548Z,12.25
2018-07-13T08:03:28.689Z,11.48
2018-07-13T08:04:02.300Z,12.18
2018-07-13T08:04:35.512Z,11.53
2018-07-13T08:05:09.950Z,13.10
2018-07-13T08:05:43.087Z,12.60
2018-07-13T08:06:16.576Z,13.90
2018-07-13T08:06:50.045Z,14.07
2018-07-13T08:07:22.972Z,12.55
2018-07-13T08:07:56.500Z,12.65
2018-07-13T08:08:29.653Z,13.13
2018-07-13T08:09:02.926Z,12.33
2018-07-13T08:09:36.471Z,13.30
2018-07-13T08:10:09.842Z,12.93
2018-07-13T08:10:43.119Z,13.65
2018-07-13T08:11:16.930Z,13.48
2018-07-13T08:11:50.138Z,12.30
2018-07-13T08:12:23.298Z,12.85
2018-07-13T08:12:56.480Z,12.00
2018-07-13T08:13:29.652Z,13.18
2018-07-13T08:14:03.020Z,11.95
2018-07-13T08:14:36.061Z,12.20
2018-07-13T08:15:09.259Z,12.88
2018-07-13T08:15:42.433Z,12.35
2018-07-13T08:16:15.907Z,13.00
2018-07-13T08:16:49.116Z,12.50
2018-07-13T08:17:23.356Z,12.53
2018-07-13T08:17:56.477Z,13.00
2018-07-13T08:18:29.639Z,11.35
2018-07-13T08:19:02.967Z,11.65
2018-07-13T08:19:36.114Z,12.20
2018-07-13T08:20:09.664Z,11.73
2018-07-13T08:20:45.021Z,12.00
2018-07-13T08:21:18.601Z,12.50
2018-07-13T08:21:53.584Z,12.73
2018-07-13T08:22:33.274Z,12.80
2018-07-13T08:23:08.804Z,13.20
2018-07-13T08:23:42.277Z,12.20
2018-07-13T08:24:19.371Z,11.63
2018-07-13T08:24:53.835Z,11.95
2018-07-13T08:25:27.573Z,12.28
2018-07-13T08:26:01.146Z,11.57
2018-07-13T08:26:34.995Z,12.13
2018-07-13T08:27:09.936Z,12.80
2018-07-13T08:27:43.751Z,12.07
2018-07-13T08:28:18.124Z,12.98
2018-07-13T08:28:51.743Z,13.55
2018-07-13T08:29:28.136Z,13.70
2018-07-13T08:30:01.451Z,11.50
2018-07-13T08:30:37.082Z,12.25
2018-07-13T08:31:10.610Z,11.25
2018-07-13T08:31:43.916Z,11.35
2018-07-13T08:32:17.899Z,12.63
2018-07-13T08:32:51.544Z,11.95
2018-07-13T08:33:25.074Z,10.93
2018-07-13T08:33:59.046Z,11.28
2018-07-13T08:34:32.557Z,12.65
2018-07-13T08:35:05.854Z,12.82
2018-07-13T08:35:39.078Z,12.60
2018-07-13T08:36:12.424Z,12.75
2018-07-13T08:36:45.949Z,14.10
2018-07-13T08:37:19.391Z,12.82
2018-07-13T08:37:52.719Z,13.58
2018-07-13T08:38:26.164Z,11.95
2018-07-13T08:38:59.522Z,12.00
2018-07-13T08:39:33.178Z,12.90
2018-07-13T08:40:06.514Z,12.00
2018-07-13T08:40:39.894Z,12.18
2018-07-13T08:41:13.677Z,11.40
2018-07-13T08:41:47.120Z,13.03
2018-07-13T08:42:20.454Z,12.45
2018-07-13T08:42:53.910Z,13.95
2018-07-13T08:43:27.790Z,12.23
2018-07-13T08:44:02.234Z,11.80
2018-07-13T08:44:35.643Z,11.97
2018-07-13T08:45:09.243Z,12.25
2018-07-13T08:45:42.472Z,12.88
2018-07-13T08:46:16.976Z,12.40
2018-07-13T08:46:50.743Z,12.50
2018-07-13T08:47:24.116Z,11.70
2018-07-13T08:47:57.800Z,11.65
2018-07-13T08:48:31.283Z,12.10
2018-07-13T08:49:04.874Z,12.63
2018-07-13T08:49:38.286Z,13.78
2018-07-13T08:50:11.621Z,13.60
2018-07-13T08:50:45.126Z,13.58
2018-07-13T08:51:18.583Z,13.35
2018-07-13T08:51:52.141Z,12.78
2018-07-13T08:52:25.618Z,12.90
2018-07-13T08:52:59.406Z,12.37
2018-07-13T08:53:32.783Z,12.63
2018-07-13T08:54:06.330Z,12.73
2018-07-13T08:54:39.640Z,13.48
2018-07-13T08:55:15.856Z,12.85
2018-07-13T08:55:49.617Z,14.40
2018-07-13T08:56:22.935Z,13.50
2018-07-13T08:56:56.572Z,13.83
2018-07-13T08:57:29.667Z,13.80
2018-07-13T08:58:02.766Z,13.90
2018-07-13T08:58:35.912Z,14.25
2018-07-13T08:59:09.464Z,14.43
2018-07-13T08:59:43.031Z,14.18
2018-07-13T09:00:16.703Z,13.72
2018-07-13T09:00:49.864Z,14.10
2018-07-13T09:01:22.998Z,13.20
2018-07-13T09:01:56.380Z,15.40
2018-07-13T09:02:29.535Z,14.75
2018-07-13T09:03:02.640Z,13.28
2018-07-13T09:03:35.839Z,16.40
2018-07-13T09:04:09.076Z,14.45
2018-07-13T09:04:42.411Z,13.70
2018-07-13T09:05:15.779Z,14.38
2018-07-13T09:05:48.927Z,13.65
2018-07-13T09:06:22.096Z,14.03
2018-07-13T09:06:55.238Z,13.80
2018-07-13T09:07:29.150Z,13.40
2018-07-13T09:08:02.245Z,12.90
2018-07-13T09:08:35.568Z,12.90
2018-07-13T09:09:13.027Z,13.58
2018-07-13T09:09:46.130Z,14.15
2018-07-13T09:10:19.294Z,13.18
2018-07-13T09:10:52.535Z,12.85
2018-07-13T09:11:25.601Z,13.88
2018-07-13T09:11:59.068Z,13.95
2018-07-13T09:12:32.237Z,13.78
2018-07-13T09:13:05.686Z,14.45
2018-07-13T09:13:38.895Z,14.20
2018-07-13T09:14:12.274Z,12.85
2018-07-13T09:14:45.927Z,14.43
2018-07-13T09:15:20.263Z,13.25
2018-07-13T09:15:53.739Z,14.00
2018-07-13T09:16:27.040Z,15.08
2018-07-13T09:17:00.218Z,14.25
2018-07-13T09:17:33.671Z,13.95
2018-07-13T09:18:06.877Z,13.35
2018-07-13T09:18:39.964Z,13.32
2018-07-13T09:19:13.164Z,12.50
2018-07-13T09:19:46.383Z,12.73
2018-07-13T09:20:19.659Z,13.15
2018-07-13T09:20:52.833Z,13.03
2018-07-13T09:21:26.084Z,14.25
2018-07-13T09:21:59.282Z,13.80
2018-07-13T09:22:32.659Z,14.13
2018-07-13T09:23:06.105Z,13.28
2018-07-13T09:23:39.261Z,12.50
2018-07-13T09:24:12.457Z,13.80
2018-07-13T09:24:45.724Z,14.15
2018-07-13T09:25:19.429Z,13.13
2018-07-13T09:25:53.382Z,12.78
2018-07-13T09:26:26.839Z,13.60
2018-07-13T09:27:00.627Z,13.35
2018-07-13T09:27:34.258Z,14.25
2018-07-13T09:28:07.775Z,12.90
2018-07-13T09:28:41.325Z,12.10
2018-07-13T09:29:14.886Z,13.43
2018-07-13T09:29:48.801Z,12.03
2018-07-13T09:30:22.662Z,12.70
2018-07-13T09:30:56.460Z,12.28
2018-07-13T09:31:30.214Z,12.65
2018-07-13T09:32:03.624Z,12.68
2018-07-13T09:32:37.065Z,12.00
2018-07-13T09:33:10.718Z,13.93
2018-07-13T09:33:44.205Z,12.47
2018-07-13T09:34:17.616Z,12.63
2018-07-13T09:34:51.639Z,13.10
2018-07-13T09:35:26.185Z,12.85
2018-07-13T09:35:59.925Z,12.98
2018-07-13T09:36:33.485Z,13.45
2018-07-13T09:37:07.039Z,12.73
2018-07-13T09:37:40.730Z,11.73
2018-07-13T09:38:14.438Z,12.03
2018-07-13T09:38:48.067Z,11.55
2018-07-13T09:39:21.515Z,11.40
2018-07-13T09:39:55.559Z,11.40
2018-07-13T09:40:29.454Z,11.90
2018-07-13T09:41:03.029Z,13.08
2018-07-13T09:41:37.007Z,11.15
2018-07-13T09:42:10.978Z,10.75
2018-07-13T09:42:44.870Z,11.20
2018-07-13T09:43:18.788Z,11.30
2018-07-13T09:43:52.965Z,13.43
2018-07-13T09:44:26.383Z,12.05
2018-07-13T09:44:59.538Z,11.63
2018-07-13T09:45:33.050Z,11.08
2018-07-13T09:46:07.510Z,10.32
2018-07-13T09:46:40.795Z,12.13
2018-07-13T09:47:14.382Z,11.20
2018-07-13T09:47:47.574Z,11.70
2018-07-13T09:48:20.800Z,11.55
2018-07-13T09:48:54.150Z,11.65
2018-07-13T09:49:27.530Z,11.38
2018-07-13T09:50:01.294Z,10.90
2018-07-13T09:50:34.775Z,11.05
2018-07-13T09:51:09.424Z,11.63
2018-07-13T09:51:42.681Z,11.65
2018-07-13T09:52:16.052Z,11.40
2018-07-13T09:52:49.694Z,11.30
2018-07-13T09:53:24.511Z,11.00
2018-07-13T09:53:58.712Z,10.90
2018-07-13T09:54:31.858Z,11.12
2018-07-13T09:55:05.551Z,11.70
2018-07-13T09:55:39.248Z,11.70
2018-07-13T09:56:12.668Z,11.93
2018-07-13T09:56:46.366Z,10.75
2018-07-13T09:57:19.569Z,10.23
2018-07-13T09:57:52.774Z,11.03
2018-07-13T09:58:30.313Z,11.93
2018-07-13T09:59:03.481Z,10.30
2018-07-13T09:59:36.643Z,11.55
2018-07-13T10:00:10.068Z,10.70
2018-07-13T10:00:48.649Z,10.72
2018-07-13T10:01:22.974Z,10.90
2018-07-13T10:01:56.101Z,10.88
2018-07-13T10:02:29.312Z,10.20
2018-07-13T10:03:02.525Z,10.85
2018-07-13T10:03:35.686Z,10.82
2018-07-13T10:04:08.971Z,10.10
2018-07-13T10:04:44.960Z,10.15
2018-07-13T10:05:18.186Z,9.93
2018-07-13T10:05:51.306Z,9.28
2018-07-13T10:06:24.467Z,8.50
2018-07-13T10:06:57.676Z,8.80
2018-07-13T10:07:31.038Z,8.98
2018-07-13T10:08:05.117Z,8.73
2018-07-13T10:08:40.232Z,8.93
2018-07-13T10:09:18.344Z,9.30
2018-07-13T10:09:51.483Z,9.03
2018-07-13T10:10:24.920Z,8.30
2018-07-13T10:10:58.348Z,8.80
2018-07-13T10:11:33.766Z,8.68
2018-07-13T10:12:07.115Z,9.20
2018-07-13T10:12:40.319Z,8.63
2018-07-13T10:13:13.474Z,8.75
2018-07-13T10:13:46.667Z,9.10
2018-07-13T10:14:20.118Z,8.50
2018-07-13T10:14:53.375Z,8.90
2018-07-13T10:15:26.523Z,9.00
2018-07-13T10:15:59.655Z,9.40
2018-07-13T10:16:32.782Z,10.00
2018-07-13T10:17:06.093Z,9.90
2018-07-13T10:17:39.269Z,8.70
2018-07-13T10:18:12.614Z,9.65
2018-07-13T10:18:45.759Z,9.63
2018-07-13T10:19:18.930Z,8.48
2018-07-13T10:19:52.254Z,10.35
2018-07-13T10:20:25.491Z,9.90
2018-07-13T10:20:58.625Z,9.30
2018-07-13T10:21:31.870Z,8.95
2018-07-13T10:22:05.252Z,10.10
2018-07-13T10:22:38.758Z,11.90
2018-07-13T10:23:11.932Z,10.32
2018-07-13T10:23:45.675Z,9.93
2018-07-13T10:24:19.921Z,9.18
2018-07-13T10:24:53.585Z,9.78
2018-07-13T10:25:27.792Z,8.63
2018-07-13T10:26:03.387Z,9.88
2018-07-13T10:26:37.796Z,8.83
2018-07-13T10:27:10.973Z,9.25
2018-07-13T10:27:44.088Z,10.58
2018-07-13T10:28:17.550Z,10.98
2018-07-13T10:28:50.744Z,10.00
2018-07-13T10:29:25.555Z,10.20
2018-07-13T10:29:59.228Z,10.00
2018-07-13T10:30:32.533Z,10.40
2018-07-13T10:31:06.128Z,9.80
2018-07-13T10:31:39.396Z,9.50
2018-07-13T10:32:12.604Z,9.53
2018-07-13T10:32:45.814Z,10.15
2018-07-13T10:33:19.204Z,9.00
2018-07-13T10:33:52.530Z,9.13
2018-07-13T10:34:25.625Z,9.80
2018-07-13T10:34:58.821Z,9.63
2018-07-13T10:35:31.998Z,9.30
2018-07-13T10:36:06.397Z,8.65
2018-07-13T10:36:40.453Z,9.70
2018-07-13T10:37:13.813Z,10.60
2018-07-13T10:37:47.142Z,9.65
2018-07-13T10:38:20.608Z,9.40
2018-07-13T10:38:53.692Z,9.63
2018-07-13T10:39:27.471Z,10.40
2018-07-13T10:40:00.890Z,10.25
2018-07-13T10:40:34.161Z,9.55
2018-07-13T10:41:07.347Z,10.00
2018-07-13T10:41:40.467Z,9.83
2018-07-13T10:42:13.637Z,10.15
2018-07-13T10:42:47.067Z,10.40
2018-07-13T10:43:20.488Z,9.53
2018-07-13T10:43:54.758Z,10.40
2018-07-13T10:44:28.092Z,10.75
2018-07-13T10:45:01.522Z,9.75
2018-07-13T10:45:35.410Z,9.90
2018-07-13T10:46:08.645Z,9.53
2018-07-13T10:46:41.972Z,9.45
2018-07-13T10:47:15.165Z,8.80
2018-07-13T10:47:48.307Z,10.23
2018-07-13T10:48:21.930Z,8.98
2018-07-13T10:48:55.216Z,10.18
2018-07-13T10:49:28.558Z,8.53
2018-07-13T10:50:01.925Z,9.93
2018-07-13T10:50:35.424Z,10.20
2018-07-13T10:51:09.032Z,9.68
2018-07-13T10:51:42.720Z,9.13
2018-07-13T10:52:16.136Z,9.75
2018-07-13T10:52:49.343Z,10.05
2018-07-13T10:53:23.088Z,9.45
2018-07-13T10:53:56.380Z,8.65
2018-07-13T10:54:30.278Z,9.48
2018-07-13T10:55:04.366Z,9.00
2018-07-13T10:55:38.062Z,9.45
2018-07-13T10:56:12.271Z,9.80
2018-07-13T10:56:46.055Z,10.15
2018-07-13T10:57:19.380Z,8.95
2018-07-13T10:57:52.691Z,9.15
2018-07-13T10:58:26.096Z,10.05
2018-07-13T10:58:59.254Z,9.60
2018-07-13T10:59:32.356Z,8.83
2018-07-13T11:00:05.901Z,9.50
2018-07-13T11:00:39.267Z,9.40
2018-07-13T11:01:12.717Z,9.95
2018-07-13T11:01:46.089Z,10.50
2018-07-13T11:02:19.162Z,10.72
2018-07-13T11:02:52.649Z,9.75
2018-07-13T11:03:25.864Z,9.83
2018-07-13T11:03:59.108Z,10.98
2018-07-13T11:04:32.401Z,10.23
2018-07-13T11:05:05.669Z,9.23
2018-07-13T11:05:38.783Z,10.45
2018-07-13T11:06:12.020Z,9.28
2018-07-13T11:06:45.665Z,10.13
2018-07-13T11:07:18.960Z,9.78
2018-07-13T11:07:52.684Z,8.90
2018-07-13T11:08:26.062Z,9.80
2018-07-13T11:08:59.546Z,10.80
2018-07-13T11:09:32.797Z,11.68
2018-07-13T11:10:05.929Z,10.60
2018-07-13T11:10:39.079Z,10.50
2018-07-13T11:11:12.404Z,9.98
2018-07-13T11:11:45.631Z,9.05
2018-07-13T11:12:19.023Z,10.48
2018-07-13T11:12:52.410Z,10.20
2018-07-13T11:13:25.763Z,10.10
2018-07-13T11:13:58.987Z,10.48
2018-07-13T11:14:32.051Z,10.05
2018-07-13T11:15:05.193Z,11.03
2018-07-13T11:15:38.346Z,9.63
2018-07-13T11:16:11.927Z,8.85
2018-07-13T11:16:45.010Z,9.58
2018-07-13T11:17:18.503Z,9.85
2018-07-13T11:17:51.658Z,9.25
2018-07-13T11:18:24.771Z,9.08
2018-07-13T11:18:58.620Z,9.45
2018-07-13T11:19:31.900Z,8.75
2018-07-13T11:20:05.013Z,9.43
2018-07-13T11:20:38.137Z,9.38
2018-07-13T11:21:11.345Z,9.25
2018-07-13T11:21:44.464Z,8.73
2018-07-13T11:22:17.614Z,9.08
2018-07-13T11:22:50.990Z,8.95
2018-07-13T11:23:24.460Z,9.45
2018-07-13T11:23:57.846Z,8.28
2018-07-13T11:24:31.101Z,9.05
2018-07-13T11:25:04.613Z,9.05
2018-07-13T11:25:37.702Z,7.87
2018-07-13T11:26:11.073Z,7.85
2018-07-13T11:26:44.299Z,8.75
2018-07-13T11:27:17.425Z,8.90
2018-07-13T11:27:50.712Z,8.30
2018-07-13T11:28:23.868Z,8.95
2018-07-13T11:28:57.455Z,8.58
2018-07-13T11:29:30.572Z,9.40
2018-07-13T11:30:03.727Z,8.55
2018-07-13T11:30:37.012Z,8.35
2018-07-13T11:31:10.118Z,8.90
2018-07-13T11:31:43.256Z,8.18
2018-07-13T11:32:16.722Z,7.50
2018-07-13T11:32:49.824Z,9.08
2018-07-13T11:33:23.078Z,7.53
2018-07-13T11:33:56.571Z,8.05
2018-07-13T11:34:29.765Z,8.83
2018-07-13T11:35:02.986Z,8.20
2018-07-13T11:35:36.106Z,8.95
2018-07-13T11:36:09.301Z,8.70
2018-07-13T11:36:42.424Z,7.92
2018-07-13T11:37:15.646Z,8.15
2018-07-13T11:37:48.886Z,9.38
2018-07-13T11:38:22.321Z,8.50
2018-07-13T11:38:55.547Z,9.00
2018-07-13T11:39:28.699Z,7.60
2018-07-13T11:40:01.863Z,8.60
2018-07-13T11:40:35.207Z,8.23
2018-07-13T11:41:08.326Z,8.08
2018-07-13T11:41:41.471Z,7.58
2018-07-13T11:42:14.923Z,7.62
2018-07-13T11:42:48.109Z,8.73
2018-07-13T11:43:21.201Z,7.87
2018-07-13T11:43:54.279Z,7.42
2018-07-13T11:44:27.613Z,7.65
2018-07-13T11:45:00.775Z,8.23
2018-07-13T11:45:33.949Z,7.65
2018-07-13T11:46:07.028Z,7.58
2018-07-13T11:46:40.410Z,7.60
2018-07-13T11:47:13.755Z,7.90
2018-07-13T11:47:47.079Z,7.72
2018-07-13T11:48:20.157Z,7.97
2018-07-13T11:48:53.253Z,8.28
2018-07-13T11:49:26.489Z,8.08
2018-07-13T11:49:59.586Z,8.70
2018-07-13T11:50:32.805Z,8.05
2018-07-13T11:51:06.037Z,8.05
2018-07-13T11:51:39.419Z,8.63
2018-07-13T11:52:12.818Z,8.35
2018-07-13T11:52:45.886Z,7.97
2018-07-13T11:53:19.017Z,8.55
2018-07-13T11:53:52.222Z,8.00
2018-07-13T11:54:25.423Z,7.50
2018-07-13T11:54:58.524Z,8.03
2018-07-13T11:55:31.755Z,8.05
2018-07-13T11:56:04.888Z,8.90
2018-07-13T11:56:38.158Z,8.80
2018-07-13T11:57:11.300Z,8.70
2018-07-13T11:57:44.500Z,8.40
2018-07-13T11:58:17.711Z,7.87
2018-07-13T11:58:51.132Z,8.38
2018-07-13T11:59:24.309Z,7.78
2018-07-13T11:59:57.446Z,7.37
2018-07-13T12:00:30.809Z,8.03
2018-07-13T12:01:04.212Z,8.05
2018-07-13T12:01:37.642Z,8.03
2018-07-13T12:02:10.841Z,7.65
2018-07-13T12:02:44.052Z,8.10
2018-07-13T12:03:17.240Z,8.13